sensor_id;sensor_type;location;lat;lon;timestamp;P1;durP1;ratioP1;P2;durP2;ratioP2
35646;SDS011;28680;45.642;13.756;2022-09-09T00:00:41;7.97;;;5.07;;
35646;SDS011;28680;45.642;13.756;2022-09-09T00:03:42;10.93;;;5.05;;
35646;SDS011;28680;45.642;13.756;2022-09-09T00:06:28;8.38;;;5.47;;
35646;SDS011;28680;45.642;13.756;2022-09-09T00:11:46;15.30;;;5.50;;
35646;SDS011;28680;45.642;13.756;2022-09-09T00:23:30;9.88;;;4.68;;
35646;SDS011;28680;45.642;13.756;2022-09-09T00:26:08;10.18;;;5.20;;
35646;SDS011;28680;45.642;13.756;2022-09-09T00:31:44;10.10;;;5.18;;
35646;SDS011;28680;45.642;13.756;2022-09-09T00:34:16;11.30;;;4.10;;
35646;SDS011;28680;45.642;13.756;2022-09-09T00:36:49;6.70;;;3.58;;
35646;SDS011;28680;45.642;13.756;2022-09-09T00:39:25;5.93;;;3.55;;
35646;SDS011;28680;45.642;13.756;2022-09-09T00:44:52;8.98;;;3.30;;
35646;SDS011;28680;45.642;13.756;2022-09-09T00:47:43;6.78;;;2.85;;
35646;SDS011;28680;45.642;13.756;2022-09-09T00:52:56;6.40;;;3.20;;
35646;SDS011;28680;45.642;13.756;2022-09-09T00:58:10;5.97;;;3.33;;
35646;SDS011;28680;45.642;13.756;2022-09-09T01:17:03;6.93;;;3.08;;
35646;SDS011;28680;45.642;13.756;2022-09-09T01:27:49;8.68;;;2.95;;
35646;SDS011;28680;45.642;13.756;2022-09-09T01:30:19;6.70;;;2.92;;
35646;SDS011;28680;45.642;13.756;2022-09-09T01:32:48;10.30;;;2.72;;
35646;SDS011;28680;45.642;13.756;2022-09-09T01:37:56;12.38;;;3.03;;
35646;SDS011;28680;45.642;13.756;2022-09-09T01:40:22;7.85;;;2.97;;
35646;SDS011;28680;45.642;13.756;2022-09-09T01:42:49;8.70;;;2.95;;
35646;SDS011;28680;45.642;13.756;2022-09-09T01:45:16;7.30;;;2.72;;
35646;SDS011;28680;45.642;13.756;2022-09-09T01:47:42;5.68;;;2.50;;
35646;SDS011;28680;45.642;13.756;2022-09-09T01:50:10;7.07;;;2.40;;
35646;SDS011;28680;45.642;13.756;2022-09-09T01:52:39;5.75;;;2.40;;
35646;SDS011;28680;45.642;13.756;2022-09-09T01:55:07;7.00;;;2.83;;
35646;SDS011;28680;45.642;13.756;2022-09-09T01:57:53;9.05;;;2.53;;
35646;SDS011;28680;45.642;13.756;2022-09-09T02:00:21;4.68;;;2.30;;
35646;SDS011;28680;45.642;13.756;2022-09-09T02:08:56;8.02;;;2.58;;
35646;SDS011;28680;45.642;13.756;2022-09-09T02:11:10;7.38;;;3.30;;
35646;SDS011;28680;45.642;13.756;2022-09-09T02:13:46;6.82;;;2.70;;
35646;SDS011;28680;45.642;13.756;2022-09-09T02:16:18;8.77;;;2.95;;
35646;SDS011;28680;45.642;13.756;2022-09-09T02:19:14;7.40;;;2.80;;
35646;SDS011;28680;45.642;13.756;2022-09-09T02:21:53;8.68;;;2.65;;
35646;SDS011;28680;45.642;13.756;2022-09-09T02:24:22;7.80;;;2.75;;
35646;SDS011;28680;45.642;13.756;2022-09-09T02:26:49;7.25;;;3.00;;
35646;SDS011;28680;45.642;13.756;2022-09-09T02:29:28;8.30;;;2.88;;
35646;SDS011;28680;45.642;13.756;2022-09-09T02:32:00;5.90;;;2.50;;
35646;SDS011;28680;45.642;13.756;2022-09-09T02:34:31;8.18;;;2.97;;
35646;SDS011;28680;45.642;13.756;2022-09-09T02:37:01;6.50;;;2.85;;
35646;SDS011;28680;45.642;13.756;2022-09-09T02:39:29;6.28;;;2.80;;
35646;SDS011;28680;45.642;13.756;2022-09-09T02:41:55;9.35;;;2.75;;
35646;SDS011;28680;45.642;13.756;2022-09-09T02:44:21;6.90;;;2.38;;
35646;SDS011;28680;45.642;13.756;2022-09-09T02:49:43;4.83;;;1.97;;
35646;SDS011;28680;45.642;13.756;2022-09-09T02:58:08;6.15;;;1.60;;
35646;SDS011;28680;45.642;13.756;2022-09-09T03:00:38;7.97;;;1.30;;
35646;SDS011;28680;45.642;13.756;2022-09-09T03:03:06;5.00;;;1.58;;
35646;SDS011;28680;45.642;13.756;2022-09-09T03:05:33;4.03;;;1.58;;
35646;SDS011;28680;45.642;13.756;2022-09-09T03:08:00;4.03;;;1.20;;
35646;SDS011;28680;45.642;13.756;2022-09-09T03:10:27;3.90;;;1.50;;
35646;SDS011;28680;45.642;13.756;2022-09-09T03:12:53;4.55;;;1.35;;
35646;SDS011;28680;45.642;13.756;2022-09-09T03:15:20;3.85;;;1.30;;
35646;SDS011;28680;45.642;13.756;2022-09-09T03:17:46;3.30;;;1.10;;
35646;SDS011;28680;45.642;13.756;2022-09-09T03:20:12;2.67;;;1.30;;
35646;SDS011;28680;45.642;13.756;2022-09-09T03:22:38;4.95;;;1.42;;
35646;SDS011;28680;45.642;13.756;2022-09-09T03:25:05;5.15;;;1.58;;
35646;SDS011;28680;45.642;13.756;2022-09-09T03:27:31;4.63;;;1.48;;
35646;SDS011;28680;45.642;13.756;2022-09-09T03:29:58;2.65;;;1.52;;
35646;SDS011;28680;45.642;13.756;2022-09-09T03:32:24;3.28;;;1.50;;
35646;SDS011;28680;45.642;13.756;2022-09-09T03:34:51;4.00;;;1.52;;
35646;SDS011;28680;45.642;13.756;2022-09-09T03:37:18;2.45;;;1.20;;
35646;SDS011;28680;45.642;13.756;2022-09-09T03:39:44;3.40;;;1.17;;
35646;SDS011;28680;45.642;13.756;2022-09-09T03:42:14;3.05;;;1.45;;
35646;SDS011;28680;45.642;13.756;2022-09-09T03:44:43;5.15;;;1.15;;
35646;SDS011;28680;45.642;13.756;2022-09-09T03:47:15;4.80;;;1.40;;
35646;SDS011;28680;45.642;13.756;2022-09-09T03:49:46;5.57;;;1.42;;
35646;SDS011;28680;45.642;13.756;2022-09-09T03:52:13;4.38;;;1.63;;
35646;SDS011;28680;45.642;13.756;2022-09-09T03:54:40;3.08;;;1.30;;
35646;SDS011;28680;45.642;13.756;2022-09-09T03:57:07;4.35;;;1.50;;
35646;SDS011;28680;45.642;13.756;2022-09-09T03:59:35;6.05;;;1.80;;
35646;SDS011;28680;45.642;13.756;2022-09-09T04:02:01;2.67;;;1.20;;
35646;SDS011;28680;45.642;13.756;2022-09-09T04:04:28;5.95;;;1.63;;
35646;SDS011;28680;45.642;13.756;2022-09-09T04:06:54;3.88;;;1.45;;
35646;SDS011;28680;45.642;13.756;2022-09-09T04:09:20;4.78;;;1.55;;
35646;SDS011;28680;45.642;13.756;2022-09-09T04:11:49;6.13;;;1.67;;
35646;SDS011;28680;45.642;13.756;2022-09-09T04:14:15;7.07;;;1.90;;
35646;SDS011;28680;45.642;13.756;2022-09-09T04:16:41;2.83;;;1.50;;
35646;SDS011;28680;45.642;13.756;2022-09-09T04:19:09;4.00;;;1.70;;
35646;SDS011;28680;45.642;13.756;2022-09-09T04:21:39;3.83;;;1.80;;
35646;SDS011;28680;45.642;13.756;2022-09-09T04:24:09;3.72;;;1.58;;
35646;SDS011;28680;45.642;13.756;2022-09-09T04:26:35;4.80;;;2.47;;
35646;SDS011;28680;45.642;13.756;2022-09-09T04:29:02;3.75;;;2.00;;
35646;SDS011;28680;45.642;13.756;2022-09-09T04:31:29;7.53;;;1.85;;
35646;SDS011;28680;45.642;13.756;2022-09-09T04:33:55;6.25;;;2.00;;
35646;SDS011;28680;45.642;13.756;2022-09-09T04:36:21;10.63;;;2.10;;
35646;SDS011;28680;45.642;13.756;2022-09-09T04:38:47;5.90;;;2.00;;
35646;SDS011;28680;45.642;13.756;2022-09-09T04:41:15;7.57;;;2.40;;
35646;SDS011;28680;45.642;13.756;2022-09-09T04:43:41;8.13;;;3.13;;
35646;SDS011;28680;45.642;13.756;2022-09-09T04:46:08;8.07;;;2.17;;
35646;SDS011;28680;45.642;13.756;2022-09-09T04:48:34;11.35;;;2.45;;
35646;SDS011;28680;45.642;13.756;2022-09-09T04:51:01;6.25;;;2.20;;
35646;SDS011;28680;45.642;13.756;2022-09-09T04:53:32;5.43;;;2.05;;
35646;SDS011;28680;45.642;13.756;2022-09-09T04:56:03;9.20;;;1.90;;
35646;SDS011;28680;45.642;13.756;2022-09-09T04:58:38;7.70;;;2.08;;
35646;SDS011;28680;45.642;13.756;2022-09-09T05:01:08;6.05;;;1.98;;
35646;SDS011;28680;45.642;13.756;2022-09-09T05:03:37;6.38;;;2.30;;
35646;SDS011;28680;45.642;13.756;2022-09-09T05:06:04;5.07;;;2.20;;
35646;SDS011;28680;45.642;13.756;2022-09-09T05:08:35;7.28;;;2.35;;
35646;SDS011;28680;45.642;13.756;2022-09-09T05:11:03;7.03;;;2.45;;
35646;SDS011;28680;45.642;13.756;2022-09-09T05:13:38;5.03;;;1.83;;
35646;SDS011;28680;45.642;13.756;2022-09-09T05:16:05;6.95;;;2.38;;
35646;SDS011;28680;45.642;13.756;2022-09-09T05:18:31;5.65;;;2.25;;
35646;SDS011;28680;45.642;13.756;2022-09-09T05:20:59;6.53;;;2.45;;
35646;SDS011;28680;45.642;13.756;2022-09-09T05:23:26;9.82;;;2.78;;
35646;SDS011;28680;45.642;13.756;2022-09-09T05:25:56;6.20;;;3.13;;
35646;SDS011;28680;45.642;13.756;2022-09-09T05:28:24;7.63;;;2.80;;
35646;SDS011;28680;45.642;13.756;2022-09-09T05:31:01;7.35;;;2.80;;
35646;SDS011;28680;45.642;13.756;2022-09-09T05:33:33;10.07;;;2.65;;
35646;SDS011;28680;45.642;13.756;2022-09-09T05:36:01;7.03;;;2.53;;
35646;SDS011;28680;45.642;13.756;2022-09-09T05:38:33;6.70;;;3.40;;
35646;SDS011;28680;45.642;13.756;2022-09-09T05:41:00;6.85;;;2.70;;
35646;SDS011;28680;45.642;13.756;2022-09-09T05:43:28;10.25;;;3.83;;
35646;SDS011;28680;45.642;13.756;2022-09-09T05:46:11;4.15;;;2.70;;
35646;SDS011;28680;45.642;13.756;2022-09-09T05:48:48;9.77;;;3.25;;
35646;SDS011;28680;45.642;13.756;2022-09-09T05:51:17;8.77;;;3.40;;
35646;SDS011;28680;45.642;13.756;2022-09-09T05:53:49;7.50;;;3.10;;
35646;SDS011;28680;45.642;13.756;2022-09-09T05:56:20;8.48;;;3.20;;
35646;SDS011;28680;45.642;13.756;2022-09-09T05:58:50;8.88;;;2.75;;
35646;SDS011;28680;45.642;13.756;2022-09-09T06:01:20;6.47;;;2.67;;
35646;SDS011;28680;45.642;13.756;2022-09-09T06:03:57;14.20;;;3.20;;
35646;SDS011;28680;45.642;13.756;2022-09-09T06:06:25;10.05;;;2.63;;
35646;SDS011;28680;45.642;13.756;2022-09-09T06:08:56;8.75;;;3.78;;
35646;SDS011;28680;45.642;13.756;2022-09-09T06:11:24;7.55;;;3.05;;
35646;SDS011;28680;45.642;13.756;2022-09-09T06:13:56;6.45;;;2.80;;
35646;SDS011;28680;45.642;13.756;2022-09-09T06:16:22;8.73;;;2.80;;
35646;SDS011;28680;45.642;13.756;2022-09-09T06:18:52;8.90;;;2.75;;
35646;SDS011;28680;45.642;13.756;2022-09-09T06:21:22;6.43;;;2.50;;
35646;SDS011;28680;45.642;13.756;2022-09-09T06:23:52;7.15;;;2.67;;
35646;SDS011;28680;45.642;13.756;2022-09-09T06:26:19;8.75;;;3.03;;
35646;SDS011;28680;45.642;13.756;2022-09-09T06:28:49;12.50;;;3.10;;
35646;SDS011;28680;45.642;13.756;2022-09-09T06:31:18;8.10;;;3.15;;
35646;SDS011;28680;45.642;13.756;2022-09-09T06:33:50;8.23;;;2.47;;
35646;SDS011;28680;45.642;13.756;2022-09-09T06:36:18;9.82;;;2.80;;
35646;SDS011;28680;45.642;13.756;2022-09-09T06:38:47;7.15;;;2.72;;
35646;SDS011;28680;45.642;13.756;2022-09-09T06:41:14;9.52;;;2.90;;
35646;SDS011;28680;45.642;13.756;2022-09-09T06:43:43;8.07;;;3.33;;
35646;SDS011;28680;45.642;13.756;2022-09-09T06:46:10;8.43;;;4.00;;
35646;SDS011;28680;45.642;13.756;2022-09-09T06:48:43;7.80;;;2.90;;
35646;SDS011;28680;45.642;13.756;2022-09-09T06:51:12;12.00;;;2.65;;
35646;SDS011;28680;45.642;13.756;2022-09-09T06:53:41;10.63;;;2.63;;
35646;SDS011;28680;45.642;13.756;2022-09-09T06:58:37;8.75;;;2.67;;
35646;SDS011;28680;45.642;13.756;2022-09-09T07:01:18;6.07;;;2.53;;
35646;SDS011;28680;45.642;13.756;2022-09-09T07:03:50;7.50;;;2.25;;
35646;SDS011;28680;45.642;13.756;2022-09-09T07:06:30;7.47;;;2.33;;
35646;SDS011;28680;45.642;13.756;2022-09-09T07:09:00;5.75;;;2.80;;
35646;SDS011;28680;45.642;13.756;2022-09-09T07:11:31;8.10;;;2.65;;
35646;SDS011;28680;45.642;13.756;2022-09-09T07:14:02;5.25;;;2.35;;
35646;SDS011;28680;45.642;13.756;2022-09-09T07:16:31;10.32;;;2.83;;
35646;SDS011;28680;45.642;13.756;2022-09-09T07:18:58;11.07;;;2.65;;
35646;SDS011;28680;45.642;13.756;2022-09-09T07:21:25;5.70;;;2.20;;
35646;SDS011;28680;45.642;13.756;2022-09-09T07:23:53;9.10;;;2.20;;
35646;SDS011;28680;45.642;13.756;2022-09-09T07:26:20;5.30;;;2.05;;
35646;SDS011;28680;45.642;13.756;2022-09-09T07:28:50;7.47;;;2.38;;
35646;SDS011;28680;45.642;13.756;2022-09-09T07:31:23;5.70;;;2.10;;
35646;SDS011;28680;45.642;13.756;2022-09-09T07:33:53;8.27;;;2.13;;
35646;SDS011;28680;45.642;13.756;2022-09-09T07:38:51;5.88;;;1.92;;
35646;SDS011;28680;45.642;13.756;2022-09-09T07:41:24;6.40;;;1.73;;
35646;SDS011;28680;45.642;13.756;2022-09-09T07:44:14;6.03;;;1.67;;
35646;SDS011;28680;45.642;13.756;2022-09-09T07:46:46;6.53;;;2.13;;
35646;SDS011;28680;45.642;13.756;2022-09-09T07:49:12;5.75;;;2.30;;
35646;SDS011;28680;45.642;13.756;2022-09-09T07:51:40;4.90;;;1.83;;
35646;SDS011;28680;45.642;13.756;2022-09-09T07:54:10;4.20;;;1.80;;
35646;SDS011;28680;45.642;13.756;2022-09-09T07:56:38;5.38;;;1.80;;
35646;SDS011;28680;45.642;13.756;2022-09-09T07:59:05;9.07;;;2.05;;
35646;SDS011;28680;45.642;13.756;2022-09-09T08:01:33;6.07;;;1.88;;
35646;SDS011;28680;45.642;13.756;2022-09-09T08:04:12;6.57;;;2.15;;
35646;SDS011;28680;45.642;13.756;2022-09-09T08:06:42;7.60;;;2.10;;
35646;SDS011;28680;45.642;13.756;2022-09-09T08:09:23;9.40;;;2.30;;
35646;SDS011;28680;45.642;13.756;2022-09-09T08:11:52;6.75;;;2.15;;
35646;SDS011;28680;45.642;13.756;2022-09-09T08:14:18;6.22;;;2.42;;
35646;SDS011;28680;45.642;13.756;2022-09-09T08:16:45;5.35;;;2.15;;
35646;SDS011;28680;45.642;13.756;2022-09-09T08:19:14;7.43;;;2.40;;
35646;SDS011;28680;45.642;13.756;2022-09-09T08:21:43;7.28;;;2.90;;
35646;SDS011;28680;45.642;13.756;2022-09-09T08:24:10;7.60;;;3.10;;
35646;SDS011;28680;45.642;13.756;2022-09-09T08:26:38;7.25;;;2.40;;
35646;SDS011;28680;45.642;13.756;2022-09-09T08:29:07;8.15;;;2.40;;
35646;SDS011;28680;45.642;13.756;2022-09-09T08:31:37;7.68;;;2.88;;
35646;SDS011;28680;45.642;13.756;2022-09-09T08:34:05;5.68;;;2.13;;
35646;SDS011;28680;45.642;13.756;2022-09-09T08:36:36;7.63;;;2.42;;
35646;SDS011;28680;45.642;13.756;2022-09-09T08:39:07;6.30;;;2.63;;
35646;SDS011;28680;45.642;13.756;2022-09-09T08:44:46;9.02;;;2.50;;
35646;SDS011;28680;45.642;13.756;2022-09-09T08:50:44;6.88;;;2.30;;
35646;SDS011;28680;45.642;13.756;2022-09-09T08:55:57;3.67;;;2.03;;
35646;SDS011;28680;45.642;13.756;2022-09-09T08:58:34;6.72;;;2.40;;
35646;SDS011;28680;45.642;13.756;2022-09-09T09:09:02;8.05;;;2.78;;
35646;SDS011;28680;45.642;13.756;2022-09-09T09:11:58;11.15;;;2.90;;
35646;SDS011;28680;45.642;13.756;2022-09-09T09:14:31;8.25;;;3.03;;
35646;SDS011;28680;45.642;13.756;2022-09-09T09:17:04;7.07;;;3.17;;
35646;SDS011;28680;45.642;13.756;2022-09-09T09:19:38;9.05;;;2.75;;
35646;SDS011;28680;45.642;13.756;2022-09-09T09:27:47;17.48;;;4.55;;
35646;SDS011;28680;45.642;13.756;2022-09-09T09:33:10;14.63;;;2.83;;
35646;SDS011;28680;45.642;13.756;2022-09-09T09:35:49;19.75;;;3.25;;
35646;SDS011;28680;45.642;13.756;2022-09-09T09:38:28;31.45;;;4.95;;
35646;SDS011;28680;45.642;13.756;2022-09-09T09:40:55;28.15;;;4.05;;
35646;SDS011;28680;45.642;13.756;2022-09-09T09:43:28;8.93;;;2.17;;
35646;SDS011;28680;45.642;13.756;2022-09-09T09:46:05;4.03;;;1.40;;
35646;SDS011;28680;45.642;13.756;2022-09-09T09:49:02;4.35;;;1.63;;
35646;SDS011;28680;45.642;13.756;2022-09-09T09:51:31;6.22;;;1.88;;
35646;SDS011;28680;45.642;13.756;2022-09-09T10:02:05;14.85;;;2.88;;
35646;SDS011;28680;45.642;13.756;2022-09-09T10:04:42;13.95;;;3.17;;
35646;SDS011;28680;45.642;13.756;2022-09-09T10:07:11;13.32;;;3.60;;
35646;SDS011;28680;45.642;13.756;2022-09-09T10:09:42;10.48;;;2.63;;
35646;SDS011;28680;45.642;13.756;2022-09-09T10:15:29;14.30;;;5.10;;
35646;SDS011;28680;45.642;13.756;2022-09-09T10:18:15;10.05;;;2.45;;
35646;SDS011;28680;45.642;13.756;2022-09-09T10:26:55;4.85;;;1.20;;
35646;SDS011;28680;45.642;13.756;2022-09-09T10:29:40;3.20;;;1.00;;
35646;SDS011;28680;45.642;13.756;2022-09-09T10:38:34;1.65;;;0.98;;
35646;SDS011;28680;45.642;13.756;2022-09-09T10:50:11;2.53;;;1.17;;
35646;SDS011;28680;45.642;13.756;2022-09-09T10:53:12;2.10;;;1.42;;
35646;SDS011;28680;45.642;13.756;2022-09-09T10:56:06;2.75;;;1.50;;
35646;SDS011;28680;45.642;13.756;2022-09-09T10:59:38;2.15;;;1.00;;
35646;SDS011;28680;45.642;13.756;2022-09-09T11:01:47;3.35;;;1.50;;
35646;SDS011;28680;45.642;13.756;2022-09-09T11:04:27;2.58;;;1.38;;
35646;SDS011;28680;45.642;13.756;2022-09-09T11:07:40;2.22;;;1.20;;
35646;SDS011;28680;45.642;13.756;2022-09-09T11:12:49;4.20;;;1.15;;
35646;SDS011;28680;45.642;13.756;2022-09-09T11:15:20;4.63;;;1.75;;
35646;SDS011;28680;45.642;13.756;2022-09-09T11:17:54;7.20;;;2.33;;
35646;SDS011;28680;45.642;13.756;2022-09-09T11:20:25;6.20;;;2.08;;
35646;SDS011;28680;45.642;13.756;2022-09-09T11:22:56;6.97;;;2.90;;
35646;SDS011;28680;45.642;13.756;2022-09-09T11:25:41;8.23;;;2.30;;
35646;SDS011;28680;45.642;13.756;2022-09-09T11:28:25;8.07;;;2.53;;
35646;SDS011;28680;45.642;13.756;2022-09-09T11:45:37;2.90;;;1.27;;
35646;SDS011;28680;45.642;13.756;2022-09-09T11:48:05;3.20;;;1.10;;
35646;SDS011;28680;45.642;13.756;2022-09-09T11:50:46;2.65;;;1.48;;
35646;SDS011;28680;45.642;13.756;2022-09-09T11:53:34;2.30;;;1.08;;
35646;SDS011;28680;45.642;13.756;2022-09-09T11:56:13;3.15;;;1.15;;
35646;SDS011;28680;45.642;13.756;2022-09-09T11:59:05;2.33;;;1.20;;
35646;SDS011;28680;45.642;13.756;2022-09-09T12:01:42;1.67;;;0.95;;
35646;SDS011;28680;45.642;13.756;2022-09-09T12:04:12;2.05;;;1.00;;
35646;SDS011;28680;45.642;13.756;2022-09-09T12:07:04;3.45;;;1.20;;
35646;SDS011;28680;45.642;13.756;2022-09-09T12:12:40;2.05;;;1.00;;
35646;SDS011;28680;45.642;13.756;2022-09-09T12:17:36;2.35;;;1.33;;
35646;SDS011;28680;45.642;13.756;2022-09-09T12:20:14;3.15;;;1.13;;
35646;SDS011;28680;45.642;13.756;2022-09-09T12:32:16;2.47;;;0.93;;
35646;SDS011;28680;45.642;13.756;2022-09-09T12:34:49;1.40;;;1.10;;
35646;SDS011;28680;45.642;13.756;2022-09-09T12:42:53;12.10;;;1.33;;
35646;SDS011;28680;45.642;13.756;2022-09-09T12:45:25;4.57;;;1.52;;
35646;SDS011;28680;45.642;13.756;2022-09-09T12:48:00;4.40;;;1.40;;
35646;SDS011;28680;45.642;13.756;2022-09-09T12:50:37;3.22;;;1.20;;
35646;SDS011;28680;45.642;13.756;2022-09-09T12:53:29;2.42;;;1.00;;
35646;SDS011;28680;45.642;13.756;2022-09-09T12:58:44;2.28;;;1.20;;
35646;SDS011;28680;45.642;13.756;2022-09-09T13:01:26;5.10;;;1.35;;
35646;SDS011;28680;45.642;13.756;2022-09-09T13:03:58;5.07;;;1.48;;
35646;SDS011;28680;45.642;13.756;2022-09-09T13:06:31;3.28;;;1.00;;
35646;SDS011;28680;45.642;13.756;2022-09-09T13:09:00;2.35;;;1.02;;
35646;SDS011;28680;45.642;13.756;2022-09-09T13:11:37;3.42;;;1.25;;
35646;SDS011;28680;45.642;13.756;2022-09-09T13:14:15;5.32;;;1.15;;
35646;SDS011;28680;45.642;13.756;2022-09-09T13:16:57;3.20;;;1.10;;
35646;SDS011;28680;45.642;13.756;2022-09-09T13:19:34;3.63;;;1.23;;
35646;SDS011;28680;45.642;13.756;2022-09-09T13:22:46;3.35;;;1.17;;
35646;SDS011;28680;45.642;13.756;2022-09-09T13:27:36;2.97;;;1.30;;
35646;SDS011;28680;45.642;13.756;2022-09-09T13:30:27;5.63;;;1.35;;
35646;SDS011;28680;45.642;13.756;2022-09-09T13:35:54;6.07;;;1.40;;
35646;SDS011;28680;45.642;13.756;2022-09-09T13:38:30;2.70;;;1.10;;
35646;SDS011;28680;45.642;13.756;2022-09-09T13:41:33;4.20;;;1.00;;
35646;SDS011;28680;45.642;13.756;2022-09-09T13:44:01;3.65;;;1.23;;
35646;SDS011;28680;45.642;13.756;2022-09-09T13:46:35;2.80;;;1.50;;
35646;SDS011;28680;45.642;13.756;2022-09-09T13:51:36;2.67;;;1.10;;
35646;SDS011;28680;45.642;13.756;2022-09-09T13:54:04;5.43;;;1.38;;
35646;SDS011;28680;45.642;13.756;2022-09-09T13:56:35;4.70;;;1.30;;
35646;SDS011;28680;45.642;13.756;2022-09-09T13:59:04;2.88;;;1.50;;
35646;SDS011;28680;45.642;13.756;2022-09-09T14:01:35;2.40;;;1.20;;
35646;SDS011;28680;45.642;13.756;2022-09-09T14:04:02;3.28;;;1.27;;
35646;SDS011;28680;45.642;13.756;2022-09-09T14:06:31;3.85;;;1.50;;
35646;SDS011;28680;45.642;13.756;2022-09-09T14:09:00;3.38;;;1.23;;
35646;SDS011;28680;45.642;13.756;2022-09-09T14:11:25;3.45;;;1.60;;
35646;SDS011;28680;45.642;13.756;2022-09-09T14:13:54;4.53;;;1.67;;
35646;SDS011;28680;45.642;13.756;2022-09-09T14:16:21;5.13;;;2.00;;
35646;SDS011;28680;45.642;13.756;2022-09-09T14:18:47;5.10;;;1.85;;
35646;SDS011;28680;45.642;13.756;2022-09-09T14:21:16;5.50;;;1.70;;
35646;SDS011;28680;45.642;13.756;2022-09-09T14:23:46;3.35;;;1.15;;
35646;SDS011;28680;45.642;13.756;2022-09-09T14:26:13;4.60;;;1.75;;
35646;SDS011;28680;45.642;13.756;2022-09-09T14:28:39;6.20;;;1.80;;
35646;SDS011;28680;45.642;13.756;2022-09-09T14:31:05;6.63;;;1.60;;
35646;SDS011;28680;45.642;13.756;2022-09-09T14:33:32;4.05;;;1.60;;
35646;SDS011;28680;45.642;13.756;2022-09-09T14:35:59;6.03;;;1.50;;
35646;SDS011;28680;45.642;13.756;2022-09-09T14:38:34;6.22;;;1.48;;
35646;SDS011;28680;45.642;13.756;2022-09-09T14:41:06;5.88;;;1.85;;
35646;SDS011;28680;45.642;13.756;2022-09-09T14:43:38;7.70;;;1.77;;
35646;SDS011;28680;45.642;13.756;2022-09-09T14:46:07;7.82;;;2.22;;
35646;SDS011;28680;45.642;13.756;2022-09-09T14:48:37;4.90;;;1.80;;
35646;SDS011;28680;45.642;13.756;2022-09-09T14:51:09;10.20;;;1.60;;
35646;SDS011;28680;45.642;13.756;2022-09-09T14:53:35;5.68;;;1.58;;
35646;SDS011;28680;45.642;13.756;2022-09-09T14:56:08;9.45;;;2.47;;
35646;SDS011;28680;45.642;13.756;2022-09-09T14:58:37;4.32;;;1.55;;
35646;SDS011;28680;45.642;13.756;2022-09-09T15:01:04;8.95;;;1.95;;
35646;SDS011;28680;45.642;13.756;2022-09-09T15:03:41;4.43;;;1.20;;
35646;SDS011;28680;45.642;13.756;2022-09-09T15:06:14;6.45;;;1.60;;
35646;SDS011;28680;45.642;13.756;2022-09-09T15:08:41;7.07;;;1.50;;
35646;SDS011;28680;45.642;13.756;2022-09-09T15:11:10;8.30;;;1.70;;
35646;SDS011;28680;45.642;13.756;2022-09-09T15:13:39;6.28;;;1.55;;
35646;SDS011;28680;45.642;13.756;2022-09-09T15:16:13;5.40;;;1.30;;
35646;SDS011;28680;45.642;13.756;2022-09-09T15:21:13;5.90;;;1.38;;
35646;SDS011;28680;45.642;13.756;2022-09-09T15:23:44;6.35;;;2.22;;
35646;SDS011;28680;45.642;13.756;2022-09-09T15:26:10;2.65;;;1.27;;
35646;SDS011;28680;45.642;13.756;2022-09-09T15:28:39;4.63;;;1.33;;
35646;SDS011;28680;45.642;13.756;2022-09-09T15:31:24;3.17;;;1.30;;
35646;SDS011;28680;45.642;13.756;2022-09-09T15:33:54;4.30;;;1.50;;
35646;SDS011;28680;45.642;13.756;2022-09-09T15:36:26;3.97;;;1.70;;
35646;SDS011;28680;45.642;13.756;2022-09-09T15:39:08;7.28;;;1.55;;
35646;SDS011;28680;45.642;13.756;2022-09-09T15:41:37;9.95;;;3.08;;
35646;SDS011;28680;45.642;13.756;2022-09-09T15:44:04;17.52;;;3.97;;
35646;SDS011;28680;45.642;13.756;2022-09-09T15:49:09;15.05;;;3.60;;
35646;SDS011;28680;45.642;13.756;2022-09-09T15:51:45;9.55;;;2.45;;
35646;SDS011;28680;45.642;13.756;2022-09-09T15:54:19;8.55;;;2.30;;
35646;SDS011;28680;45.642;13.756;2022-09-09T15:56:56;6.47;;;1.80;;
35646;SDS011;28680;45.642;13.756;2022-09-09T15:59:26;6.70;;;1.58;;
35646;SDS011;28680;45.642;13.756;2022-09-09T16:01:54;8.10;;;1.83;;
35646;SDS011;28680;45.642;13.756;2022-09-09T16:04:21;6.00;;;1.50;;
35646;SDS011;28680;45.642;13.756;2022-09-09T16:06:56;6.28;;;1.95;;
35646;SDS011;28680;45.642;13.756;2022-09-09T16:09:29;4.93;;;1.38;;
35646;SDS011;28680;45.642;13.756;2022-09-09T16:11:56;4.63;;;1.50;;
35646;SDS011;28680;45.642;13.756;2022-09-09T16:14:25;6.95;;;1.70;;
35646;SDS011;28680;45.642;13.756;2022-09-09T16:16:52;6.25;;;1.88;;
35646;SDS011;28680;45.642;13.756;2022-09-09T16:19:21;6.95;;;1.83;;
35646;SDS011;28680;45.642;13.756;2022-09-09T16:21:48;8.75;;;2.38;;
35646;SDS011;28680;45.642;13.756;2022-09-09T16:24:18;4.53;;;1.52;;
35646;SDS011;28680;45.642;13.756;2022-09-09T16:26:46;5.95;;;1.50;;
35646;SDS011;28680;45.642;13.756;2022-09-09T16:29:15;4.63;;;1.63;;
35646;SDS011;28680;45.642;13.756;2022-09-09T16:31:42;4.20;;;1.65;;
35646;SDS011;28680;45.642;13.756;2022-09-09T16:34:09;11.50;;;2.05;;
35646;SDS011;28680;45.642;13.756;2022-09-09T16:36:36;4.65;;;2.00;;
35646;SDS011;28680;45.642;13.756;2022-09-09T16:39:07;4.18;;;1.60;;
35646;SDS011;28680;45.642;13.756;2022-09-09T16:41:46;10.38;;;2.15;;
35646;SDS011;28680;45.642;13.756;2022-09-09T16:45:12;5.07;;;1.88;;
35646;SDS011;28680;45.642;13.756;2022-09-09T16:47:41;7.20;;;2.85;;
35646;SDS011;28680;45.642;13.756;2022-09-09T16:50:07;3.92;;;1.50;;
35646;SDS011;28680;45.642;13.756;2022-09-09T16:52:33;6.22;;;1.90;;
35646;SDS011;28680;45.642;13.756;2022-09-09T16:54:59;4.65;;;1.83;;
35646;SDS011;28680;45.642;13.756;2022-09-09T16:57:25;5.25;;;1.70;;
35646;SDS011;28680;45.642;13.756;2022-09-09T16:59:51;6.15;;;1.48;;
35646;SDS011;28680;45.642;13.756;2022-09-09T17:02:19;12.57;;;1.80;;
35646;SDS011;28680;45.642;13.756;2022-09-09T17:04:45;6.50;;;1.63;;
35646;SDS011;28680;45.642;13.756;2022-09-09T17:07:10;6.85;;;1.58;;
35646;SDS011;28680;45.642;13.756;2022-09-09T17:09:37;4.13;;;1.60;;
35646;SDS011;28680;45.642;13.756;2022-09-09T17:12:02;4.45;;;1.38;;
35646;SDS011;28680;45.642;13.756;2022-09-09T17:14:33;5.57;;;1.75;;
35646;SDS011;28680;45.642;13.756;2022-09-09T17:16:59;3.65;;;1.33;;
35646;SDS011;28680;45.642;13.756;2022-09-09T17:19:25;4.43;;;1.65;;
35646;SDS011;28680;45.642;13.756;2022-09-09T17:21:51;6.70;;;1.35;;
35646;SDS011;28680;45.642;13.756;2022-09-09T17:24:17;6.10;;;1.70;;
35646;SDS011;28680;45.642;13.756;2022-09-09T17:26:43;3.83;;;1.27;;
35646;SDS011;28680;45.642;13.756;2022-09-09T17:29:10;5.90;;;1.67;;
35646;SDS011;28680;45.642;13.756;2022-09-09T17:31:39;2.65;;;1.05;;
35646;SDS011;28680;45.642;13.756;2022-09-09T17:34:07;5.38;;;1.50;;
35646;SDS011;28680;45.642;13.756;2022-09-09T17:36:36;6.47;;;1.33;;
35646;SDS011;28680;45.642;13.756;2022-09-09T17:39:03;4.30;;;1.50;;
35646;SDS011;28680;45.642;13.756;2022-09-09T17:41:31;2.95;;;1.23;;
35646;SDS011;28680;45.642;13.756;2022-09-09T17:44:07;2.85;;;1.40;;
35646;SDS011;28680;45.642;13.756;2022-09-09T17:46:35;3.83;;;1.73;;
35646;SDS011;28680;45.642;13.756;2022-09-09T17:49:06;5.55;;;1.40;;
35646;SDS011;28680;45.642;13.756;2022-09-09T17:51:37;5.38;;;1.85;;
35646;SDS011;28680;45.642;13.756;2022-09-09T17:54:04;4.75;;;1.08;;
35646;SDS011;28680;45.642;13.756;2022-09-09T17:56:52;2.72;;;1.35;;
35646;SDS011;28680;45.642;13.756;2022-09-09T17:59:18;3.33;;;1.02;;
35646;SDS011;28680;45.642;13.756;2022-09-09T18:01:45;2.85;;;1.20;;